sensor_id;sensor_type;location;lat;lon;timestamp;P1;durP1;ratioP1;P2;durP2;ratioP2
67995;SDS011;54772;53.544;49.324;2022-08-24T00:01:20;17.60;;;8.10;;
67995;SDS011;54772;53.544;49.324;2022-08-24T00:03:47;13.20;;;7.82;;
67995;SDS011;54772;53.544;49.324;2022-08-24T00:06:15;11.15;;;7.50;;
67995;SDS011;54772;53.544;49.324;2022-08-24T00:08:44;13.60;;;7.87;;
67995;SDS011;54772;53.544;49.324;2022-08-24T00:11:12;12.65;;;7.37;;
67995;SDS011;54772;53.544;49.324;2022-08-24T00:13:38;11.88;;;7.85;;
67995;SDS011;54772;53.544;49.324;2022-08-24T00:16:06;13.10;;;8.95;;
67995;SDS011;54772;53.544;49.324;2022-08-24T00:18:33;11.63;;;7.70;;
67995;SDS011;54772;53.544;49.324;2022-08-24T00:21:00;11.68;;;7.25;;
67995;SDS011;54772;53.544;49.324;2022-08-24T00:23:27;15.90;;;7.72;;
67995;SDS011;54772;53.544;49.324;2022-08-24T00:25:54;17.05;;;8.30;;
67995;SDS011;54772;53.544;49.324;2022-08-24T00:28:21;12.95;;;7.82;;
67995;SDS011;54772;53.544;49.324;2022-08-24T00:30:48;12.85;;;7.78;;
67995;SDS011;54772;53.544;49.324;2022-08-24T00:33:15;12.18;;;7.72;;
67995;SDS011;54772;53.544;49.324;2022-08-24T00:35:42;14.63;;;7.90;;
67995;SDS011;54772;53.544;49.324;2022-08-24T00:38:09;12.88;;;7.70;;
67995;SDS011;54772;53.544;49.324;2022-08-24T00:40:37;12.85;;;7.45;;
67995;SDS011;54772;53.544;49.324;2022-08-24T00:43:06;12.15;;;7.72;;
67995;SDS011;54772;53.544;49.324;2022-08-24T00:45:37;14.45;;;7.90;;
67995;SDS011;54772;53.544;49.324;2022-08-24T00:48:10;11.40;;;7.65;;
67995;SDS011;54772;53.544;49.324;2022-08-24T00:50:53;11.90;;;7.22;;
67995;SDS011;54772;53.544;49.324;2022-08-24T00:53:24;10.95;;;7.25;;
67995;SDS011;54772;53.544;49.324;2022-08-24T00:56:03;12.45;;;7.68;;
67995;SDS011;54772;53.544;49.324;2022-08-24T00:58:39;10.55;;;7.57;;
67995;SDS011;54772;53.544;49.324;2022-08-24T01:01:09;11.98;;;7.55;;
67995;SDS011;54772;53.544;49.324;2022-08-24T01:03:38;14.48;;;6.90;;
67995;SDS011;54772;53.544;49.324;2022-08-24T01:06:06;10.55;;;7.40;;
67995;SDS011;54772;53.544;49.324;2022-08-24T01:08:33;14.95;;;7.57;;
67995;SDS011;54772;53.544;49.324;2022-08-24T01:11:01;10.20;;;7.32;;
67995;SDS011;54772;53.544;49.324;2022-08-24T01:13:33;11.10;;;6.68;;
67995;SDS011;54772;53.544;49.324;2022-08-24T01:16:03;15.15;;;6.97;;
67995;SDS011;54772;53.544;49.324;2022-08-24T01:18:31;10.20;;;7.15;;
67995;SDS011;54772;53.544;49.324;2022-08-24T01:26:25;9.57;;;7.22;;
67995;SDS011;54772;53.544;49.324;2022-08-24T01:28:59;12.02;;;7.95;;
67995;SDS011;54772;53.544;49.324;2022-08-24T01:31:28;10.80;;;7.82;;
67995;SDS011;54772;53.544;49.324;2022-08-24T01:33:55;14.90;;;7.80;;
67995;SDS011;54772;53.544;49.324;2022-08-24T01:36:56;11.02;;;7.68;;
67995;SDS011;54772;53.544;49.324;2022-08-24T01:39:33;13.52;;;7.43;;
67995;SDS011;54772;53.544;49.324;2022-08-24T01:42:04;10.50;;;7.50;;
67995;SDS011;54772;53.544;49.324;2022-08-24T01:44:32;17.00;;;7.82;;
67995;SDS011;54772;53.544;49.324;2022-08-24T01:47:00;14.13;;;7.50;;
67995;SDS011;54772;53.544;49.324;2022-08-24T01:49:29;10.38;;;7.32;;
67995;SDS011;54772;53.544;49.324;2022-08-24T01:51:58;11.32;;;7.20;;
67995;SDS011;54772;53.544;49.324;2022-08-24T01:54:25;10.95;;;7.22;;
67995;SDS011;54772;53.544;49.324;2022-08-24T01:56:52;11.55;;;7.20;;
67995;SDS011;54772;53.544;49.324;2022-08-24T01:59:19;12.18;;;7.32;;
67995;SDS011;54772;53.544;49.324;2022-08-24T02:01:47;12.80;;;6.97;;
67995;SDS011;54772;53.544;49.324;2022-08-24T02:04:17;13.32;;;7.62;;
67995;SDS011;54772;53.544;49.324;2022-08-24T02:06:44;13.20;;;8.25;;
67995;SDS011;54772;53.544;49.324;2022-08-24T02:09:11;13.60;;;8.18;;
67995;SDS011;54772;53.544;49.324;2022-08-24T02:11:37;15.18;;;8.38;;
67995;SDS011;54772;53.544;49.324;2022-08-24T02:14:04;17.08;;;8.70;;
67995;SDS011;54772;53.544;49.324;2022-08-24T02:16:31;13.43;;;7.68;;
67995;SDS011;54772;53.544;49.324;2022-08-24T02:18:58;10.80;;;7.60;;
67995;SDS011;54772;53.544;49.324;2022-08-24T02:21:25;13.98;;;8.10;;
67995;SDS011;54772;53.544;49.324;2022-08-24T02:23:51;15.35;;;8.45;;
67995;SDS011;54772;53.544;49.324;2022-08-24T02:26:18;10.32;;;7.37;;
67995;SDS011;54772;53.544;49.324;2022-08-24T02:28:45;11.75;;;7.53;;
67995;SDS011;54772;53.544;49.324;2022-08-24T02:31:12;13.95;;;8.27;;
67995;SDS011;54772;53.544;49.324;2022-08-24T02:33:40;9.60;;;7.50;;
67995;SDS011;54772;53.544;49.324;2022-08-24T02:36:07;9.68;;;6.45;;
67995;SDS011;54772;53.544;49.324;2022-08-24T02:38:36;11.48;;;7.28;;
67995;SDS011;54772;53.544;49.324;2022-08-24T02:41:03;11.25;;;8.02;;
67995;SDS011;54772;53.544;49.324;2022-08-24T02:43:30;11.10;;;6.85;;
67995;SDS011;54772;53.544;49.324;2022-08-24T02:45:57;11.12;;;7.87;;
67995;SDS011;54772;53.544;49.324;2022-08-24T02:48:23;13.75;;;7.45;;
67995;SDS011;54772;53.544;49.324;2022-08-24T02:50:51;12.55;;;8.38;;
67995;SDS011;54772;53.544;49.324;2022-08-24T02:53:18;12.10;;;7.57;;
67995;SDS011;54772;53.544;49.324;2022-08-24T02:55:45;12.13;;;6.75;;
67995;SDS011;54772;53.544;49.324;2022-08-24T02:58:13;12.55;;;7.50;;
67995;SDS011;54772;53.544;49.324;2022-08-24T03:00:41;10.20;;;6.68;;
67995;SDS011;54772;53.544;49.324;2022-08-24T03:03:08;11.25;;;6.87;;
67995;SDS011;54772;53.544;49.324;2022-08-24T03:05:36;11.90;;;6.57;;
67995;SDS011;54772;53.544;49.324;2022-08-24T03:08:03;13.80;;;7.25;;
67995;SDS011;54772;53.544;49.324;2022-08-24T03:10:30;11.88;;;7.80;;
67995;SDS011;54772;53.544;49.324;2022-08-24T03:12:57;13.98;;;7.43;;
67995;SDS011;54772;53.544;49.324;2022-08-24T03:15:25;13.65;;;8.40;;
67995;SDS011;54772;53.544;49.324;2022-08-24T03:17:53;18.95;;;7.97;;
67995;SDS011;54772;53.544;49.324;2022-08-24T03:20:20;11.80;;;7.55;;
67995;SDS011;54772;53.544;49.324;2022-08-24T03:22:47;14.30;;;7.25;;
67995;SDS011;54772;53.544;49.324;2022-08-24T03:25:15;12.90;;;7.28;;
67995;SDS011;54772;53.544;49.324;2022-08-24T03:27:42;10.98;;;6.70;;
67995;SDS011;54772;53.544;49.324;2022-08-24T03:30:10;12.40;;;5.87;;
67995;SDS011;54772;53.544;49.324;2022-08-24T03:32:38;10.93;;;6.03;;
67995;SDS011;54772;53.544;49.324;2022-08-24T03:35:06;11.40;;;6.20;;
67995;SDS011;54772;53.544;49.324;2022-08-24T03:37:33;9.05;;;5.53;;
67995;SDS011;54772;53.544;49.324;2022-08-24T03:40:00;11.25;;;5.57;;
67995;SDS011;54772;53.544;49.324;2022-08-24T03:42:26;11.80;;;6.25;;
67995;SDS011;54772;53.544;49.324;2022-08-24T03:44:53;14.50;;;6.30;;
67995;SDS011;54772;53.544;49.324;2022-08-24T03:47:19;10.82;;;6.35;;
67995;SDS011;54772;53.544;49.324;2022-08-24T03:49:47;9.38;;;6.40;;
67995;SDS011;54772;53.544;49.324;2022-08-24T03:52:13;13.73;;;6.55;;
67995;SDS011;54772;53.544;49.324;2022-08-24T03:54:40;10.90;;;6.68;;
67995;SDS011;54772;53.544;49.324;2022-08-24T03:57:07;12.82;;;6.12;;
67995;SDS011;54772;53.544;49.324;2022-08-24T03:59:33;13.65;;;7.07;;
67995;SDS011;54772;53.544;49.324;2022-08-24T04:02:00;11.05;;;6.45;;
67995;SDS011;54772;53.544;49.324;2022-08-24T04:04:27;12.23;;;6.60;;
67995;SDS011;54772;53.544;49.324;2022-08-24T04:06:56;12.25;;;6.30;;
67995;SDS011;54772;53.544;49.324;2022-08-24T04:09:23;9.30;;;5.87;;
67995;SDS011;54772;53.544;49.324;2022-08-24T04:11:50;14.25;;;6.75;;
67995;SDS011;54772;53.544;49.324;2022-08-24T04:14:16;14.07;;;6.60;;
67995;SDS011;54772;53.544;49.324;2022-08-24T04:16:46;14.02;;;7.12;;
67995;SDS011;54772;53.544;49.324;2022-08-24T04:19:12;10.18;;;6.95;;
67995;SDS011;54772;53.544;49.324;2022-08-24T04:21:39;11.35;;;7.22;;
67995;SDS011;54772;53.544;49.324;2022-08-24T04:24:08;12.50;;;7.12;;
67995;SDS011;54772;53.544;49.324;2022-08-24T04:26:36;14.05;;;7.22;;
67995;SDS011;54772;53.544;49.324;2022-08-24T04:29:04;12.65;;;7.30;;
67995;SDS011;54772;53.544;49.324;2022-08-24T04:31:34;8.82;;;6.28;;
67995;SDS011;54772;53.544;49.324;2022-08-24T04:34:01;12.48;;;6.53;;
67995;SDS011;54772;53.544;49.324;2022-08-24T04:36:28;11.77;;;6.80;;
67995;SDS011;54772;53.544;49.324;2022-08-24T04:38:56;10.13;;;5.82;;
67995;SDS011;54772;53.544;49.324;2022-08-24T04:41:24;10.55;;;5.95;;
67995;SDS011;54772;53.544;49.324;2022-08-24T04:43:50;13.05;;;6.32;;
67995;SDS011;54772;53.544;49.324;2022-08-24T04:46:18;15.32;;;7.57;;
67995;SDS011;54772;53.544;49.324;2022-08-24T04:48:46;10.82;;;7.70;;
67995;SDS011;54772;53.544;49.324;2022-08-24T04:51:14;16.00;;;6.62;;
67995;SDS011;54772;53.544;49.324;2022-08-24T04:53:42;21.73;;;6.85;;
67995;SDS011;54772;53.544;49.324;2022-08-24T04:56:10;14.07;;;6.22;;
67995;SDS011;54772;53.544;49.324;2022-08-24T04:58:42;12.85;;;5.53;;
67995;SDS011;54772;53.544;49.324;2022-08-24T05:01:12;15.38;;;5.80;;
67995;SDS011;54772;53.544;49.324;2022-08-24T05:03:45;15.70;;;6.07;;
67995;SDS011;54772;53.544;49.324;2022-08-24T05:06:14;11.18;;;5.60;;
67995;SDS011;54772;53.544;49.324;2022-08-24T05:08:45;10.60;;;5.40;;
67995;SDS011;54772;53.544;49.324;2022-08-24T05:11:12;11.10;;;5.78;;
67995;SDS011;54772;53.544;49.324;2022-08-24T05:13:41;11.68;;;5.60;;
67995;SDS011;54772;53.544;49.324;2022-08-24T05:16:09;7.82;;;5.20;;
67995;SDS011;54772;53.544;49.324;2022-08-24T05:18:38;9.63;;;6.45;;
67995;SDS011;54772;53.544;49.324;2022-08-24T05:21:05;10.07;;;6.53;;
67995;SDS011;54772;53.544;49.324;2022-08-24T05:23:33;7.43;;;5.12;;
67995;SDS011;54772;53.544;49.324;2022-08-24T05:26:05;11.20;;;5.55;;
67995;SDS011;54772;53.544;49.324;2022-08-24T05:28:36;8.13;;;4.70;;
67995;SDS011;54772;53.544;49.324;2022-08-24T05:31:13;9.95;;;5.62;;
67995;SDS011;54772;53.544;49.324;2022-08-24T05:33:42;7.35;;;5.22;;
67995;SDS011;54772;53.544;49.324;2022-08-24T05:36:31;10.63;;;5.78;;
67995;SDS011;54772;53.544;49.324;2022-08-24T05:39:03;7.80;;;4.65;;
67995;SDS011;54772;53.544;49.324;2022-08-24T05:41:32;10.43;;;5.25;;
67995;SDS011;54772;53.544;49.324;2022-08-24T05:43:59;8.85;;;5.10;;
67995;SDS011;54772;53.544;49.324;2022-08-24T05:46:26;8.07;;;4.82;;
67995;SDS011;54772;53.544;49.324;2022-08-24T05:48:53;11.45;;;4.85;;
67995;SDS011;54772;53.544;49.324;2022-08-24T05:51:21;6.75;;;4.78;;
67995;SDS011;54772;53.544;49.324;2022-08-24T05:53:47;10.27;;;4.95;;
67995;SDS011;54772;53.544;49.324;2022-08-24T05:56:15;9.23;;;5.50;;
67995;SDS011;54772;53.544;49.324;2022-08-24T05:58:42;7.68;;;5.30;;
67995;SDS011;54772;53.544;49.324;2022-08-24T06:01:10;8.23;;;5.15;;
67995;SDS011;54772;53.544;49.324;2022-08-24T06:03:39;10.88;;;5.40;;
67995;SDS011;54772;53.544;49.324;2022-08-24T06:06:06;15.00;;;6.25;;
67995;SDS011;54772;53.544;49.324;2022-08-24T06:08:34;11.20;;;5.75;;
67995;SDS011;54772;53.544;49.324;2022-08-24T06:11:02;16.35;;;5.82;;
67995;SDS011;54772;53.544;49.324;2022-08-24T06:13:29;13.38;;;5.95;;
67995;SDS011;54772;53.544;49.324;2022-08-24T06:16:09;16.42;;;5.15;;
67995;SDS011;54772;53.544;49.324;2022-08-24T06:18:37;11.98;;;5.78;;
67995;SDS011;54772;53.544;49.324;2022-08-24T06:21:05;18.12;;;6.60;;
67995;SDS011;54772;53.544;49.324;2022-08-24T06:23:34;10.23;;;5.30;;
67995;SDS011;54772;53.544;49.324;2022-08-24T06:26:02;10.07;;;5.60;;
67995;SDS011;54772;53.544;49.324;2022-08-24T06:28:47;11.20;;;6.22;;
67995;SDS011;54772;53.544;49.324;2022-08-24T06:31:14;10.48;;;6.15;;
67995;SDS011;54772;53.544;49.324;2022-08-24T06:33:41;12.23;;;6.12;;
67995;SDS011;54772;53.544;49.324;2022-08-24T06:36:08;14.15;;;6.22;;
67995;SDS011;54772;53.544;49.324;2022-08-24T06:38:34;12.37;;;6.65;;
67995;SDS011;54772;53.544;49.324;2022-08-24T06:41:01;10.25;;;6.37;;
67995;SDS011;54772;53.544;49.324;2022-08-24T06:43:28;9.55;;;6.20;;
67995;SDS011;54772;53.544;49.324;2022-08-24T06:45:57;13.27;;;5.93;;
67995;SDS011;54772;53.544;49.324;2022-08-24T06:48:25;9.20;;;6.57;;
67995;SDS011;54772;53.544;49.324;2022-08-24T06:50:52;10.65;;;5.20;;
67995;SDS011;54772;53.544;49.324;2022-08-24T06:53:19;8.80;;;5.45;;
67995;SDS011;54772;53.544;49.324;2022-08-24T06:55:53;14.30;;;6.65;;
67995;SDS011;54772;53.544;49.324;2022-08-24T06:58:22;13.27;;;5.87;;
67995;SDS011;54772;53.544;49.324;2022-08-24T07:00:52;9.73;;;5.70;;
67995;SDS011;54772;53.544;49.324;2022-08-24T07:03:21;9.90;;;5.72;;
67995;SDS011;54772;53.544;49.324;2022-08-24T07:05:49;11.10;;;5.47;;
67995;SDS011;54772;53.544;49.324;2022-08-24T07:08:20;10.52;;;5.55;;
67995;SDS011;54772;53.544;49.324;2022-08-24T07:10:47;8.60;;;4.97;;
67995;SDS011;54772;53.544;49.324;2022-08-24T07:13:14;13.50;;;5.53;;
67995;SDS011;54772;53.544;49.324;2022-08-24T07:15:41;10.70;;;4.90;;
67995;SDS011;54772;53.544;49.324;2022-08-24T07:18:15;11.73;;;4.80;;
67995;SDS011;54772;53.544;49.324;2022-08-24T07:20:42;12.05;;;4.65;;
67995;SDS011;54772;53.544;49.324;2022-08-24T07:23:09;14.18;;;5.20;;
67995;SDS011;54772;53.544;49.324;2022-08-24T07:25:39;13.57;;;5.07;;
67995;SDS011;54772;53.544;49.324;2022-08-24T07:28:06;8.35;;;4.50;;
67995;SDS011;54772;53.544;49.324;2022-08-24T07:30:33;6.25;;;4.37;;
67995;SDS011;54772;53.544;49.324;2022-08-24T07:33:00;7.15;;;4.10;;
67995;SDS011;54772;53.544;49.324;2022-08-24T07:35:28;7.57;;;4.30;;
67995;SDS011;54772;53.544;49.324;2022-08-24T07:37:56;6.90;;;4.28;;
67995;SDS011;54772;53.544;49.324;2022-08-24T07:40:24;6.82;;;4.10;;
67995;SDS011;54772;53.544;49.324;2022-08-24T07:42:52;8.05;;;4.10;;
67995;SDS011;54772;53.544;49.324;2022-08-24T07:45:20;5.22;;;3.78;;
67995;SDS011;54772;53.544;49.324;2022-08-24T07:47:48;6.18;;;3.80;;
67995;SDS011;54772;53.544;49.324;2022-08-24T07:50:16;7.32;;;3.90;;
67995;SDS011;54772;53.544;49.324;2022-08-24T07:52:43;7.10;;;3.83;;
67995;SDS011;54772;53.544;49.324;2022-08-24T07:55:11;9.75;;;4.07;;
67995;SDS011;54772;53.544;49.324;2022-08-24T07:57:38;7.18;;;3.72;;
67995;SDS011;54772;53.544;49.324;2022-08-24T08:00:06;5.97;;;3.45;;
67995;SDS011;54772;53.544;49.324;2022-08-24T08:02:36;7.80;;;3.85;;
67995;SDS011;54772;53.544;49.324;2022-08-24T08:05:04;7.75;;;3.70;;
67995;SDS011;54772;53.544;49.324;2022-08-24T08:07:31;5.72;;;3.28;;
67995;SDS011;54772;53.544;49.324;2022-08-24T08:09:57;6.62;;;3.30;;
67995;SDS011;54772;53.544;49.324;2022-08-24T08:12:26;5.43;;;3.50;;
67995;SDS011;54772;53.544;49.324;2022-08-24T08:14:52;4.65;;;3.40;;
67995;SDS011;54772;53.544;49.324;2022-08-24T08:17:19;7.72;;;3.50;;
67995;SDS011;54772;53.544;49.324;2022-08-24T08:19:45;8.52;;;3.80;;
67995;SDS011;54772;53.544;49.324;2022-08-24T08:22:12;8.90;;;4.32;;
67995;SDS011;54772;53.544;49.324;2022-08-24T08:24:57;4.93;;;3.50;;
67995;SDS011;54772;53.544;49.324;2022-08-24T08:27:24;5.00;;;3.08;;
67995;SDS011;54772;53.544;49.324;2022-08-24T08:29:51;3.80;;;3.08;;
67995;SDS011;54772;53.544;49.324;2022-08-24T08:32:18;5.87;;;3.42;;
67995;SDS011;54772;53.544;49.324;2022-08-24T08:34:45;4.97;;;2.90;;
67995;SDS011;54772;53.544;49.324;2022-08-24T08:37:12;5.22;;;3.60;;
67995;SDS011;54772;53.544;49.324;2022-08-24T08:39:39;5.43;;;3.50;;
67995;SDS011;54772;53.544;49.324;2022-08-24T08:51:19;5.40;;;3.47;;
67995;SDS011;54772;53.544;49.324;2022-08-24T09:02:21;5.60;;;3.28;;
67995;SDS011;54772;53.544;49.324;2022-08-24T09:19:01;7.43;;;4.78;;
67995;SDS011;54772;53.544;49.324;2022-08-24T09:33:21;5.82;;;2.97;;
67995;SDS011;54772;53.544;49.324;2022-08-24T09:36:08;3.40;;;2.90;;
67995;SDS011;54772;53.544;49.324;2022-08-24T09:38:48;5.62;;;2.70;;
67995;SDS011;54772;53.544;49.324;2022-08-24T09:41:51;3.67;;;2.97;;
67995;SDS011;54772;53.544;49.324;2022-08-24T09:49:50;6.05;;;3.10;;
67995;SDS011;54772;53.544;49.324;2022-08-24T09:55:49;7.43;;;3.97;;
67995;SDS011;54772;53.544;49.324;2022-08-24T10:15:37;6.30;;;3.83;;
67995;SDS011;54772;53.544;49.324;2022-08-24T10:29:21;6.40;;;3.42;;
67995;SDS011;54772;53.544;49.324;2022-08-24T10:34:48;5.60;;;3.35;;
67995;SDS011;54772;53.544;49.324;2022-08-24T10:37:35;6.57;;;3.65;;
67995;SDS011;54772;53.544;49.324;2022-08-24T10:40:12;7.22;;;3.55;;
67995;SDS011;54772;53.544;49.324;2022-08-24T10:45:34;4.65;;;3.15;;
67995;SDS011;54772;53.544;49.324;2022-08-24T10:51:31;5.32;;;3.30;;
67995;SDS011;54772;53.544;49.324;2022-08-24T10:53:49;5.37;;;3.17;;
67995;SDS011;54772;53.544;49.324;2022-08-24T10:56:18;6.65;;;4.53;;
67995;SDS011;54772;53.544;49.324;2022-08-24T10:58:47;4.85;;;3.33;;
67995;SDS011;54772;53.544;49.324;2022-08-24T11:01:28;6.28;;;3.90;;
67995;SDS011;54772;53.544;49.324;2022-08-24T11:03:58;5.87;;;3.60;;
67995;SDS011;54772;53.544;49.324;2022-08-24T11:06:29;5.80;;;3.53;;
67995;SDS011;54772;53.544;49.324;2022-08-24T11:11:44;5.90;;;3.60;;
67995;SDS011;54772;53.544;49.324;2022-08-24T11:16:49;6.95;;;3.80;;
67995;SDS011;54772;53.544;49.324;2022-08-24T11:21:57;5.53;;;3.22;;
67995;SDS011;54772;53.544;49.324;2022-08-24T11:24:30;3.37;;;3.05;;
67995;SDS011;54772;53.544;49.324;2022-08-24T11:38:05;6.55;;;3.35;;
67995;SDS011;54772;53.544;49.324;2022-08-24T11:40:39;6.03;;;3.12;;
67995;SDS011;54772;53.544;49.324;2022-08-24T11:43:10;4.62;;;3.45;;
67995;SDS011;54772;53.544;49.324;2022-08-24T11:51:31;5.05;;;3.42;;
67995;SDS011;54772;53.544;49.324;2022-08-24T12:02:04;5.25;;;3.40;;
67995;SDS011;54772;53.544;49.324;2022-08-24T12:04:35;5.05;;;3.50;;
67995;SDS011;54772;53.544;49.324;2022-08-24T12:07:30;4.65;;;3.37;;
67995;SDS011;54772;53.544;49.324;2022-08-24T12:15:58;6.55;;;3.53;;
67995;SDS011;54772;53.544;49.324;2022-08-24T12:18:40;4.75;;;3.17;;
67995;SDS011;54772;53.544;49.324;2022-08-24T12:21:11;4.85;;;2.95;;
67995;SDS011;54772;53.544;49.324;2022-08-24T12:23:40;6.65;;;3.97;;
67995;SDS011;54772;53.544;49.324;2022-08-24T12:26:35;5.35;;;3.80;;
67995;SDS011;54772;53.544;49.324;2022-08-24T12:37:20;8.73;;;3.97;;
67995;SDS011;54772;53.544;49.324;2022-08-24T12:42:53;9.18;;;3.95;;
67995;SDS011;54772;53.544;49.324;2022-08-24T12:45:27;6.20;;;3.80;;
67995;SDS011;54772;53.544;49.324;2022-08-24T13:02:00;5.78;;;3.70;;
67995;SDS011;54772;53.544;49.324;2022-08-24T13:17:54;5.47;;;3.80;;
67995;SDS011;54772;53.544;49.324;2022-08-24T13:23:07;5.60;;;3.92;;
67995;SDS011;54772;53.544;49.324;2022-08-24T13:45:16;5.95;;;4.28;;
67995;SDS011;54772;53.544;49.324;2022-08-24T13:47:48;8.57;;;4.03;;
67995;SDS011;54772;53.544;49.324;2022-08-24T13:59:51;5.47;;;3.30;;
67995;SDS011;54772;53.544;49.324;2022-08-24T14:02:49;6.12;;;3.90;;
67995;SDS011;54772;53.544;49.324;2022-08-24T14:16:37;6.45;;;3.60;;
67995;SDS011;54772;53.544;49.324;2022-08-24T14:27:37;8.30;;;4.22;;
67995;SDS011;54772;53.544;49.324;2022-08-24T14:38:48;7.75;;;4.35;;
67995;SDS011;54772;53.544;49.324;2022-08-24T14:44:15;7.28;;;4.03;;
67995;SDS011;54772;53.544;49.324;2022-08-24T14:46:49;5.15;;;3.55;;
67995;SDS011;54772;53.544;49.324;2022-08-24T14:58:26;7.10;;;4.03;;
67995;SDS011;54772;53.544;49.324;2022-08-24T15:06:29;7.10;;;3.95;;
67995;SDS011;54772;53.544;49.324;2022-08-24T15:09:26;9.25;;;4.28;;
67995;SDS011;54772;53.544;49.324;2022-08-24T15:11:55;8.23;;;4.22;;
67995;SDS011;54772;53.544;49.324;2022-08-24T15:17:16;8.27;;;4.22;;
67995;SDS011;54772;53.544;49.324;2022-08-24T15:22:35;11.70;;;4.75;;
67995;SDS011;54772;53.544;49.324;2022-08-24T15:27:54;9.82;;;4.72;;
67995;SDS011;54772;53.544;49.324;2022-08-24T15:33:03;6.57;;;3.78;;
67995;SDS011;54772;53.544;49.324;2022-08-24T15:35:35;7.95;;;4.53;;
67995;SDS011;54772;53.544;49.324;2022-08-24T15:46:17;7.57;;;4.05;;
67995;SDS011;54772;53.544;49.324;2022-08-24T15:48:46;7.72;;;4.03;;
67995;SDS011;54772;53.544;49.324;2022-08-24T15:56:57;9.57;;;4.07;;
67995;SDS011;54772;53.544;49.324;2022-08-24T15:59:43;6.03;;;3.83;;
67995;SDS011;54772;53.544;49.324;2022-08-24T16:10:31;12.43;;;4.18;;
67995;SDS011;54772;53.544;49.324;2022-08-24T16:13:11;14.10;;;4.90;;
67995;SDS011;54772;53.544;49.324;2022-08-24T16:18:21;10.77;;;6.53;;
67995;SDS011;54772;53.544;49.324;2022-08-24T16:20:49;20.17;;;11.70;;
67995;SDS011;54772;53.544;49.324;2022-08-24T16:23:21;14.20;;;8.68;;
67995;SDS011;54772;53.544;49.324;2022-08-24T16:28:42;20.52;;;9.45;;
67995;SDS011;54772;53.544;49.324;2022-08-24T16:31:09;16.90;;;9.13;;
67995;SDS011;54772;53.544;49.324;2022-08-24T16:33:37;19.23;;;9.05;;
67995;SDS011;54772;53.544;49.324;2022-08-24T16:36:06;15.50;;;7.82;;
67995;SDS011;54772;53.544;49.324;2022-08-24T16:38:35;19.30;;;7.72;;
67995;SDS011;54772;53.544;49.324;2022-08-24T16:41:07;11.10;;;6.20;;
67995;SDS011;54772;53.544;49.324;2022-08-24T16:43:35;12.50;;;5.10;;
67995;SDS011;54772;53.544;49.324;2022-08-24T16:46:05;6.53;;;4.12;;
67995;SDS011;54772;53.544;49.324;2022-08-24T16:48:33;6.43;;;3.83;;
67995;SDS011;54772;53.544;49.324;2022-08-24T16:50:59;6.95;;;3.70;;
67995;SDS011;54772;53.544;49.324;2022-08-24T16:53:27;9.77;;;3.97;;
67995;SDS011;54772;53.544;49.324;2022-08-24T16:55:54;7.15;;;3.50;;
67995;SDS011;54772;53.544;49.324;2022-08-24T16:58:23;10.00;;;4.30;;
67995;SDS011;54772;53.544;49.324;2022-08-24T17:00:54;4.95;;;3.80;;
67995;SDS011;54772;53.544;49.324;2022-08-24T17:03:21;8.00;;;4.03;;
67995;SDS011;54772;53.544;49.324;2022-08-24T17:05:48;6.60;;;3.45;;
67995;SDS011;54772;53.544;49.324;2022-08-24T17:08:15;9.10;;;4.22;;
67995;SDS011;54772;53.544;49.324;2022-08-24T17:10:41;6.55;;;4.32;;
67995;SDS011;54772;53.544;49.324;2022-08-24T17:13:08;6.78;;;4.00;;
67995;SDS011;54772;53.544;49.324;2022-08-24T17:15:35;8.25;;;4.80;;
67995;SDS011;54772;53.544;49.324;2022-08-24T17:18:03;7.93;;;4.22;;
67995;SDS011;54772;53.544;49.324;2022-08-24T17:20:32;9.70;;;4.37;;
67995;SDS011;54772;53.544;49.324;2022-08-24T17:22:59;8.35;;;4.47;;
67995;SDS011;54772;53.544;49.324;2022-08-24T17:25:26;6.95;;;3.80;;
67995;SDS011;54772;53.544;49.324;2022-08-24T17:27:54;6.55;;;4.03;;
67995;SDS011;54772;53.544;49.324;2022-08-24T17:30:21;6.00;;;3.47;;
67995;SDS011;54772;53.544;49.324;2022-08-24T17:32:49;6.37;;;3.90;;
67995;SDS011;54772;53.544;49.324;2022-08-24T17:35:18;8.23;;;3.28;;
67995;SDS011;54772;53.544;49.324;2022-08-24T17:37:45;5.53;;;3.22;;
67995;SDS011;54772;53.544;49.324;2022-08-24T17:40:14;5.20;;;3.15;;
67995;SDS011;54772;53.544;49.324;2022-08-24T17:42:41;5.30;;;3.28;;
67995;SDS011;54772;53.544;49.324;2022-08-24T17:45:08;7.45;;;3.12;;
67995;SDS011;54772;53.544;49.324;2022-08-24T17:47:37;6.40;;;3.35;;
67995;SDS011;54772;53.544;49.324;2022-08-24T17:50:04;7.43;;;3.75;;
67995;SDS011;54772;53.544;49.324;2022-08-24T17:52:35;8.65;;;3.47;;
67995;SDS011;54772;53.544;49.324;2022-08-24T17:55:03;6.07;;;3.55;;
67995;SDS011;54772;53.544;49.324;2022-08-24T17:57:31;5.93;;;3.55;;
67995;SDS011;54772;53.544;49.324;2022-08-24T17:59:57;8.95;;;3.67;;
67995;SDS011;54772;53.544;49.324;2022-08-24T18:02:24;10.20;;;3.53;;
67995;SDS011;54772;53.544;49.324;2022-08-24T18:04:51;6.05;;;3.35;;
67995;SDS011;54772;53.544;49.324;2022-08-24T18:07:18;7.75;;;3.65;;
67995;SDS011;54772;53.544;49.324;2022-08-24T18:09:47;6.25;;;3.92;;
67995;SDS011;54772;53.544;49.324;2022-08-24T18:12:19;8.70;;;4.68;;
67995;SDS011;54772;53.544;49.324;2022-08-24T18:14:57;10.40;;;4.65;;
67995;SDS011;54772;53.544;49.324;2022-08-24T18:17:35;13.00;;;4.07;;
67995;SDS011;54772;53.544;49.324;2022-08-24T18:20:07;14.48;;;5.32;;
67995;SDS011;54772;53.544;49.324;2022-08-24T18:22:35;10.48;;;3.70;;
67995;SDS011;54772;53.544;49.324;2022-08-24T18:25:09;8.48;;;3.62;;
67995;SDS011;54772;53.544;49.324;2022-08-24T18:27:36;8.35;;;4.50;;
67995;SDS011;54772;53.544;49.324;2022-08-24T18:30:04;9.75;;;4.37;;
67995;SDS011;54772;53.544;49.324;2022-08-24T18:32:32;6.53;;;3.42;;
67995;SDS011;54772;53.544;49.324;2022-08-24T18:34:59;11.77;;;4.10;;
67995;SDS011;54772;53.544;49.324;2022-08-24T18:37:25;9.95;;;3.90;;
67995;SDS011;54772;53.544;49.324;2022-08-24T18:39:52;6.37;;;4.05;;
67995;SDS011;54772;53.544;49.324;2022-08-24T18:42:18;8.70;;;3.90;;
67995;SDS011;54772;53.544;49.324;2022-08-24T18:44:45;8.88;;;3.90;;
67995;SDS011;54772;53.544;49.324;2022-08-24T18:47:12;6.22;;;3.35;;
67995;SDS011;54772;53.544;49.324;2022-08-24T18:49:39;7.40;;;3.65;;
67995;SDS011;54772;53.544;49.324;2022-08-24T18:52:06;7.12;;;3.22;;
67995;SDS011;54772;53.544;49.324;2022-08-24T18:54:35;6.18;;;3.45;;
67995;SDS011;54772;53.544;49.324;2022-08-24T18:57:05;4.85;;;3.53;;
67995;SDS011;54772;53.544;49.324;2022-08-24T18:59:33;7.25;;;4.00;;
67995;SDS011;54772;53.544;49.324;2022-08-24T19:02:03;6.37;;;3.53;;
67995;SDS011;54772;53.544;49.324;2022-08-24T19:04:52;9.07;;;3.50;;
67995;SDS011;54772;53.544;49.324;2022-08-24T19:07:18;5.40;;;3.62;;
67995;SDS011;54772;53.544;49.324;2022-08-24T19:09:45;6.50;;;3.83;;
67995;SDS011;54772;53.544;49.324;2022-08-24T19:12:12;8.25;;;3.90;;
67995;SDS011;54772;53.544;49.324;2022-08-24T19:14:38;9.82;;;3.67;;
67995;SDS011;54772;53.544;49.324;2022-08-24T19:17:05;7.82;;;4.30;;
67995;SDS011;54772;53.544;49.324;2022-08-24T19:19:32;7.35;;;3.78;;
67995;SDS011;54772;53.544;49.324;2022-08-24T19:22:00;6.30;;;3.90;;
67995;SDS011;54772;53.544;49.324;2022-08-24T19:24:28;10.77;;;3.87;;
67995;SDS011;54772;53.544;49.324;2022-08-24T19:26:55;9.82;;;4.03;;
67995;SDS011;54772;53.544;49.324;2022-08-24T19:29:21;10.30;;;4.65;;
67995;SDS011;54772;53.544;49.324;2022-08-24T19:31:49;6.80;;;4.28;;